createdAt,value
2023-06-07T00:00:02.580Z,18.90
2023-06-07T00:02:42.316Z,18.83
2023-06-07T00:05:11.915Z,18.81
2023-06-07T00:07:39.597Z,18.87
2023-06-07T00:10:08.047Z,18.73
2023-06-07T00:12:35.902Z,18.75
2023-06-07T00:15:03.591Z,18.76
2023-06-07T00:17:31.568Z,18.71
2023-06-07T00:19:59.012Z,18.69
2023-06-07T00:22:26.641Z,18.64
2023-06-07T00:24:55.056Z,18.62
2023-06-07T00:27:22.708Z,18.66
2023-06-07T00:29:49.970Z,18.63
2023-06-07T00:32:17.682Z,18.54
2023-06-07T00:34:45.033Z,18.65
2023-06-07T00:37:12.669Z,18.63
2023-06-07T00:39:39.949Z,18.69
2023-06-07T00:42:07.952Z,18.66
2023-06-07T00:44:35.403Z,18.69
2023-06-07T00:47:03.872Z,18.70
2023-06-07T00:49:31.844Z,18.69
2023-06-07T00:51:59.790Z,18.72
2023-06-07T00:54:28.980Z,18.72
2023-06-07T00:56:56.913Z,18.77
2023-06-07T00:59:24.426Z,18.81
2023-06-07T01:01:56.977Z,18.75
2023-06-07T01:04:25.816Z,18.77
2023-06-07T01:06:53.727Z,18.77
2023-06-07T01:09:22.941Z,18.87
2023-06-07T01:11:54.527Z,18.85
2023-06-07T01:14:23.541Z,18.82
2023-06-07T01:16:54.323Z,18.81
2023-06-07T01:19:35.832Z,18.82
2023-06-07T01:22:09.309Z,18.84
2023-06-07T01:24:38.690Z,18.88
2023-06-07T01:27:08.410Z,18.86
2023-06-07T01:29:36.248Z,18.74
2023-06-07T01:32:09.256Z,18.72
2023-06-07T01:34:37.851Z,18.76
2023-06-07T01:37:06.983Z,18.81
2023-06-07T01:39:35.183Z,18.84
2023-06-07T01:42:04.624Z,18.81
2023-06-07T01:44:33.156Z,18.80
2023-06-07T01:47:00.815Z,18.79
2023-06-07T01:49:28.204Z,18.77
2023-06-07T01:51:55.858Z,18.83
2023-06-07T01:54:23.543Z,18.86
2023-06-07T01:57:04.717Z,18.81
2023-06-07T02:00:09.710Z,18.77
2023-06-07T02:03:28.239Z,18.66
2023-06-07T02:06:02.644Z,18.68
2023-06-07T02:08:43.082Z,18.72
2023-06-07T02:11:11.867Z,18.78
2023-06-07T02:13:44.624Z,18.77
2023-06-07T02:16:12.944Z,18.74
2023-06-07T02:18:42.234Z,18.75
2023-06-07T02:21:11.374Z,18.78
2023-06-07T02:23:39.777Z,18.83
2023-06-07T02:26:07.073Z,18.80
2023-06-07T02:28:34.592Z,18.78
2023-06-07T02:31:01.931Z,18.72
2023-06-07T02:33:29.638Z,18.72
2023-06-07T02:35:57.211Z,18.73
2023-06-07T02:38:24.917Z,18.65
2023-06-07T02:40:54.439Z,18.71
2023-06-07T02:43:22.032Z,18.69
2023-06-07T02:45:49.371Z,18.74
2023-06-07T02:48:17.646Z,18.77
2023-06-07T02:50:45.023Z,18.79
2023-06-07T02:53:12.580Z,18.79
2023-06-07T02:55:39.869Z,18.83
2023-06-07T02:58:08.334Z,18.83
2023-06-07T03:00:35.643Z,18.83
2023-06-07T03:03:06.649Z,18.74
2023-06-07T03:05:34.924Z,18.70
2023-06-07T03:08:03.827Z,18.84
2023-06-07T03:10:31.297Z,18.85
2023-06-07T03:12:58.858Z,18.89
2023-06-07T03:15:26.151Z,18.82
2023-06-07T03:17:53.757Z,18.77
2023-06-07T03:20:22.813Z,18.80
2023-06-07T03:22:50.493Z,18.86
2023-06-07T03:25:17.876Z,18.94
2023-06-07T03:27:46.613Z,18.97
2023-06-07T03:30:14.016Z,19.12
2023-06-07T03:32:42.293Z,19.15
2023-06-07T03:35:09.889Z,19.11
2023-06-07T03:37:37.469Z,19.20
2023-06-07T03:40:06.081Z,19.28
2023-06-07T03:42:33.852Z,19.33
2023-06-07T03:45:01.223Z,19.37
2023-06-07T03:47:29.434Z,19.32
2023-06-07T03:49:56.708Z,19.39
2023-06-07T03:52:24.303Z,19.47
2023-06-07T03:54:51.572Z,19.55
2023-06-07T03:57:19.212Z,19.57
2023-06-07T03:59:46.700Z,19.63
2023-06-07T04:02:14.237Z,19.63
2023-06-07T04:04:41.557Z,19.61
2023-06-07T04:07:09.968Z,19.72
2023-06-07T04:09:37.271Z,19.81
2023-06-07T04:12:06.777Z,19.80
2023-06-07T04:14:34.077Z,19.78
2023-06-07T04:17:02.077Z,19.82
2023-06-07T04:19:29.527Z,19.81
2023-06-07T04:21:57.116Z,19.73
2023-06-07T04:24:24.452Z,19.81
2023-06-07T04:26:54.550Z,19.84
2023-06-07T04:29:24.864Z,19.82
2023-06-07T04:31:58.071Z,19.85
2023-06-07T04:34:25.788Z,19.90
2023-06-07T04:36:54.058Z,19.89
2023-06-07T04:39:21.736Z,19.98
2023-06-07T04:41:50.383Z,19.98
2023-06-07T04:44:29.071Z,20.00
2023-06-07T04:47:05.162Z,20.06
2023-06-07T04:49:36.627Z,20.09
2023-06-07T04:52:06.851Z,20.17
2023-06-07T04:54:37.755Z,20.28
2023-06-07T04:57:10.106Z,20.33
2023-06-07T04:59:44.055Z,20.43
2023-06-07T05:02:12.272Z,20.49
2023-06-07T05:04:39.596Z,20.54
2023-06-07T05:07:15.016Z,20.54
2023-06-07T05:09:42.386Z,20.59
2023-06-07T05:12:10.244Z,20.59
2023-06-07T05:14:37.591Z,20.54
2023-06-07T05:17:06.757Z,20.58
2023-06-07T05:19:34.058Z,20.69
2023-06-07T05:22:01.664Z,20.79
2023-06-07T05:24:29.009Z,20.75
2023-06-07T05:26:56.635Z,20.88
2023-06-07T05:29:23.957Z,20.96
2023-06-07T05:31:51.617Z,21.02
2023-06-07T05:34:19.121Z,21.10
2023-06-07T05:36:46.721Z,21.16
2023-06-07T05:39:13.991Z,21.20
2023-06-07T05:41:41.669Z,21.29
2023-06-07T05:44:08.966Z,21.44
2023-06-07T05:46:36.513Z,21.47
2023-06-07T05:49:04.471Z,21.65
2023-06-07T05:51:32.494Z,21.70
2023-06-07T05:53:59.994Z,21.81
2023-06-07T05:56:29.019Z,21.86
2023-06-07T05:58:56.272Z,21.96
2023-06-07T06:01:23.997Z,22.11
2023-06-07T06:03:51.333Z,22.19
2023-06-07T06:06:19.663Z,22.32
2023-06-07T06:08:47.183Z,22.46
2023-06-07T06:11:15.384Z,22.59
2023-06-07T06:13:44.606Z,22.47
2023-06-07T06:16:13.072Z,22.66
2023-06-07T06:18:44.360Z,22.80
2023-06-07T06:21:11.921Z,22.85
2023-06-07T06:23:39.491Z,22.96
2023-06-07T06:26:07.160Z,22.99
2023-06-07T06:28:34.406Z,22.91
2023-06-07T06:31:04.383Z,23.03
2023-06-07T06:33:31.881Z,23.12
2023-06-07T06:36:00.706Z,23.23
2023-06-07T06:38:28.027Z,23.21
2023-06-07T06:40:55.618Z,23.43
2023-06-07T06:43:23.015Z,23.72
2023-06-07T06:45:50.615Z,23.87
2023-06-07T06:48:17.901Z,23.95
2023-06-07T06:50:48.154Z,24.17
2023-06-07T06:53:15.689Z,24.09
2023-06-07T06:55:43.239Z,24.02
2023-06-07T06:58:10.591Z,23.90
2023-06-07T07:00:41.121Z,23.80
2023-06-07T07:03:08.535Z,23.95
2023-06-07T07:05:36.325Z,23.80
2023-06-07T07:08:04.735Z,24.04
2023-06-07T07:10:32.360Z,23.97
2023-06-07T07:12:59.811Z,24.26
2023-06-07T07:15:28.972Z,24.58
2023-06-07T07:17:56.414Z,24.90
2023-06-07T07:20:24.220Z,24.96
2023-06-07T07:22:51.605Z,25.25
2023-06-07T07:25:19.243Z,25.63
2023-06-07T07:27:46.509Z,26.08
2023-06-07T07:30:14.440Z,26.42
2023-06-07T07:32:41.785Z,26.49
2023-06-07T07:35:09.591Z,26.47
2023-06-07T07:37:39.548Z,26.55
2023-06-07T07:40:10.577Z,26.41
2023-06-07T07:42:39.293Z,26.48
2023-06-07T07:45:08.411Z,26.44
2023-06-07T07:47:35.945Z,26.86
2023-06-07T07:50:05.763Z,26.98
2023-06-07T07:52:33.344Z,27.01
2023-06-07T07:55:02.201Z,27.32
2023-06-07T07:57:30.808Z,27.53
2023-06-07T07:59:58.511Z,27.86
2023-06-07T08:02:25.849Z,28.03
2023-06-07T08:04:55.027Z,28.36
2023-06-07T08:07:22.838Z,28.78
2023-06-07T08:09:50.494Z,28.83
2023-06-07T08:12:17.944Z,29.19
2023-06-07T08:14:45.702Z,29.47
2023-06-07T08:17:12.992Z,29.45
2023-06-07T08:19:41.045Z,29.54
2023-06-07T08:22:08.440Z,29.82
2023-06-07T08:24:36.105Z,29.96
2023-06-07T08:27:03.612Z,30.23
2023-06-07T08:29:31.340Z,30.16
2023-06-07T08:31:59.109Z,30.19
2023-06-07T08:34:31.694Z,30.12
2023-06-07T08:37:01.724Z,30.05
2023-06-07T08:39:30.030Z,30.58
2023-06-07T08:42:03.857Z,30.69
2023-06-07T08:44:31.559Z,30.53
2023-06-07T08:47:06.600Z,30.88
2023-06-07T08:49:35.048Z,30.91
2023-06-07T08:52:15.633Z,30.94
2023-06-07T08:54:48.424Z,31.15
2023-06-07T08:57:20.208Z,31.38
2023-06-07T08:59:49.795Z,31.20
2023-06-07T09:02:21.158Z,31.24
2023-06-07T09:04:48.927Z,31.44
2023-06-07T09:07:16.578Z,31.30
2023-06-07T09:09:45.118Z,31.45
2023-06-07T09:12:12.795Z,31.87
2023-06-07T09:14:41.409Z,31.82
2023-06-07T09:17:09.857Z,31.74
2023-06-07T09:19:42.751Z,31.22
2023-06-07T09:22:18.469Z,30.68
2023-06-07T09:24:46.269Z,30.66
2023-06-07T09:27:14.718Z,30.98
2023-06-07T09:29:44.587Z,30.45
2023-06-07T09:32:25.191Z,30.17
2023-06-07T09:35:11.245Z,30.52
2023-06-07T09:37:47.776Z,31.08
2023-06-07T09:40:16.521Z,31.42
2023-06-07T09:42:45.038Z,31.64
2023-06-07T09:45:17.101Z,31.13
2023-06-07T09:47:44.913Z,31.02
2023-06-07T09:50:14.806Z,30.95
2023-06-07T09:52:42.527Z,30.87
2023-06-07T09:55:28.659Z,30.78
2023-06-07T09:57:57.623Z,30.96
2023-06-07T10:00:27.279Z,31.64
2023-06-07T10:03:07.268Z,31.60
2023-06-07T10:05:36.204Z,31.86
2023-06-07T10:08:05.998Z,31.87
2023-06-07T10:10:36.316Z,32.28
2023-06-07T10:13:06.949Z,32.40
2023-06-07T10:15:37.085Z,32.60
2023-06-07T10:18:25.513Z,32.18
2023-06-07T10:21:02.064Z,31.98
2023-06-07T10:24:08.527Z,32.17
2023-06-07T10:27:00.978Z,31.73
2023-06-07T10:29:47.252Z,31.87
2023-06-07T10:32:31.631Z,32.01
2023-06-07T10:35:02.144Z,32.25
2023-06-07T10:37:32.260Z,32.50
2023-06-07T10:40:07.270Z,32.20
2023-06-07T10:42:35.374Z,32.09
2023-06-07T10:45:02.958Z,31.99
2023-06-07T10:47:33.739Z,31.80
2023-06-07T10:50:01.697Z,31.65
2023-06-07T10:52:29.530Z,31.68
2023-06-07T10:54:57.119Z,31.96
2023-06-07T10:57:39.244Z,32.21
2023-06-07T11:00:32.706Z,32.25
2023-06-07T11:03:06.401Z,32.04
2023-06-07T11:06:07.831Z,31.67
2023-06-07T11:08:38.249Z,31.38
2023-06-07T11:11:41.373Z,30.86
2023-06-07T11:14:08.931Z,30.73
2023-06-07T11:16:36.825Z,30.33
2023-06-07T11:19:11.244Z,30.00
2023-06-07T11:21:57.101Z,29.61
2023-06-07T11:24:25.839Z,29.06
2023-06-07T11:26:53.488Z,29.13
2023-06-07T11:29:22.195Z,29.46
2023-06-07T11:32:02.194Z,29.86
2023-06-07T11:34:32.760Z,30.11
2023-06-07T11:37:15.797Z,30.62
2023-06-07T11:39:44.246Z,30.90
2023-06-07T11:42:11.691Z,31.33
2023-06-07T11:44:39.989Z,31.34
2023-06-07T11:47:08.533Z,31.04
2023-06-07T11:49:42.164Z,30.98
2023-06-07T11:52:09.882Z,31.10
2023-06-07T11:54:43.507Z,30.96
2023-06-07T11:57:11.326Z,31.03
2023-06-07T11:59:40.810Z,30.88
2023-06-07T12:02:09.856Z,30.78
2023-06-07T12:04:38.315Z,30.64
2023-06-07T12:07:19.672Z,30.93
2023-06-07T12:09:50.802Z,31.17
2023-06-07T12:12:18.142Z,31.43
2023-06-07T12:14:48.363Z,30.96
2023-06-07T12:17:15.780Z,30.68
2023-06-07T12:19:43.718Z,30.28
2023-06-07T12:22:11.015Z,30.32
2023-06-07T12:24:41.682Z,30.42
2023-06-07T12:27:13.314Z,30.49
2023-06-07T12:29:42.310Z,30.36
2023-06-07T12:32:11.314Z,30.42
2023-06-07T12:34:45.444Z,30.51
2023-06-07T12:37:12.928Z,30.46
2023-06-07T12:39:40.961Z,30.50
2023-06-07T12:42:08.959Z,30.33
2023-06-07T12:44:36.594Z,30.52
2023-06-07T12:47:04.140Z,30.41
2023-06-07T12:49:32.695Z,30.41
2023-06-07T12:52:00.073Z,30.59
2023-06-07T12:54:27.982Z,30.23
2023-06-07T12:56:55.776Z,30.13
2023-06-07T12:59:23.384Z,30.22
2023-06-07T13:01:51.023Z,30.32
2023-06-07T13:04:18.715Z,30.20
2023-06-07T13:06:46.121Z,30.56
2023-06-07T13:09:13.831Z,30.60
2023-06-07T13:11:43.202Z,30.36
2023-06-07T13:14:11.123Z,30.53
2023-06-07T13:16:38.975Z,30.26
2023-06-07T13:19:06.901Z,30.14
2023-06-07T13:21:34.249Z,29.70
2023-06-07T13:24:01.960Z,29.49
2023-06-07T13:26:29.683Z,29.52
2023-06-07T13:28:57.399Z,29.79
2023-06-07T13:31:26.620Z,29.96
2023-06-07T13:33:54.550Z,29.84
2023-06-07T13:36:21.868Z,29.81
2023-06-07T13:38:50.068Z,29.91
2023-06-07T13:41:17.388Z,29.76
2023-06-07T13:43:59.964Z,29.76
2023-06-07T13:46:35.691Z,29.45
2023-06-07T13:49:03.375Z,29.19
2023-06-07T13:51:30.796Z,29.28
2023-06-07T13:53:58.736Z,29.28
2023-06-07T13:56:27.222Z,29.43
2023-06-07T13:58:59.037Z,29.46
2023-06-07T14:01:28.303Z,29.33
2023-06-07T14:03:57.094Z,29.39
2023-06-07T14:06:24.715Z,29.52
2023-06-07T14:08:52.339Z,29.59
2023-06-07T14:11:19.818Z,29.56
2023-06-07T14:13:47.436Z,29.43
2023-06-07T14:16:14.786Z,29.10
2023-06-07T14:18:42.387Z,29.16
2023-06-07T14:21:09.884Z,29.09
2023-06-07T14:23:37.499Z,29.16
2023-06-07T14:26:04.874Z,29.32
2023-06-07T14:28:32.587Z,29.22
2023-06-07T14:31:01.327Z,28.91
2023-06-07T14:33:29.115Z,28.89
2023-06-07T14:35:56.491Z,28.59
2023-06-07T14:38:24.522Z,28.48
2023-06-07T14:40:51.920Z,28.48
2023-06-07T14:43:19.494Z,28.49
2023-06-07T14:45:46.842Z,28.64
2023-06-07T14:48:14.633Z,28.77
2023-06-07T14:50:41.937Z,28.72
2023-06-07T14:53:09.594Z,28.67
2023-06-07T14:55:36.939Z,28.50
2023-06-07T14:58:05.968Z,28.52
2023-06-07T15:00:34.850Z,28.45
2023-06-07T15:03:02.582Z,28.54
2023-06-07T15:05:30.536Z,28.53
2023-06-07T15:07:58.142Z,28.41
2023-06-07T15:10:25.464Z,28.56
2023-06-07T15:12:53.192Z,28.56
2023-06-07T15:15:22.268Z,28.23
2023-06-07T15:17:52.079Z,28.24
2023-06-07T15:20:21.104Z,28.16
2023-06-07T15:22:48.814Z,28.05
2023-06-07T15:25:16.235Z,28.05
2023-06-07T15:27:43.992Z,28.04
2023-06-07T15:30:13.110Z,28.08
2023-06-07T15:32:40.824Z,28.14
2023-06-07T15:35:10.900Z,28.15
2023-06-07T15:37:40.892Z,28.12
2023-06-07T15:40:09.214Z,28.13
2023-06-07T15:42:39.466Z,27.93
2023-06-07T15:45:07.847Z,27.82
2023-06-07T15:47:35.638Z,27.65
2023-06-07T15:50:03.390Z,27.57
2023-06-07T15:52:31.308Z,27.47
2023-06-07T15:54:58.621Z,27.41
2023-06-07T15:57:26.181Z,27.25
2023-06-07T15:59:53.547Z,27.07
2023-06-07T16:02:21.125Z,27.08
2023-06-07T16:04:48.608Z,27.06
2023-06-07T16:07:16.264Z,27.00
2023-06-07T16:09:43.572Z,27.04
2023-06-07T16:12:12.222Z,27.00
2023-06-07T16:14:41.611Z,26.96
2023-06-07T16:17:09.309Z,26.92
2023-06-07T16:19:37.801Z,26.84
2023-06-07T16:22:05.593Z,26.71
2023-06-07T16:24:32.901Z,26.65
2023-06-07T16:27:00.866Z,26.71
2023-06-07T16:29:28.178Z,26.71
2023-06-07T16:31:55.889Z,26.73
2023-06-07T16:34:23.284Z,26.69
2023-06-07T16:36:50.977Z,26.63
2023-06-07T16:39:18.249Z,26.54
2023-06-07T16:41:45.880Z,26.42
2023-06-07T16:44:13.656Z,26.36
2023-06-07T16:46:43.136Z,26.28
2023-06-07T16:49:12.466Z,26.17
2023-06-07T16:51:40.233Z,26.09
2023-06-07T16:54:07.580Z,26.10
2023-06-07T16:56:35.277Z,26.08
2023-06-07T16:59:02.609Z,26.04
2023-06-07T17:01:32.322Z,25.89
2023-06-07T17:04:00.315Z,25.89
2023-06-07T17:06:27.933Z,25.78
2023-06-07T17:08:55.656Z,25.73
2023-06-07T17:11:23.266Z,25.64
2023-06-07T17:13:50.592Z,25.64
2023-06-07T17:16:18.376Z,25.59
2023-06-07T17:18:45.794Z,25.52
2023-06-07T17:21:13.825Z,25.47
2023-06-07T17:23:41.917Z,25.50
2023-06-07T17:26:10.113Z,25.45
2023-06-07T17:28:37.423Z,25.42
2023-06-07T17:31:05.428Z,25.40
2023-06-07T17:33:32.994Z,25.38
2023-06-07T17:36:00.620Z,25.37
2023-06-07T17:38:27.979Z,25.28
2023-06-07T17:40:55.548Z,25.21
2023-06-07T17:43:22.876Z,25.17
2023-06-07T17:45:51.142Z,25.08
2023-06-07T17:48:18.924Z,24.97
2023-06-07T17:50:47.608Z,24.93
2023-06-07T17:53:15.571Z,24.89
2023-06-07T17:55:46.448Z,24.84
2023-06-07T17:58:14.523Z,24.79
2023-06-07T18:00:42.336Z,24.67
2023-06-07T18:03:12.835Z,24.56
2023-06-07T18:05:40.795Z,24.57
2023-06-07T18:08:08.292Z,24.54
2023-06-07T18:10:35.909Z,24.47
2023-06-07T18:13:04.625Z,24.32
2023-06-07T18:15:32.742Z,24.25
2023-06-07T18:18:00.191Z,24.21
2023-06-07T18:20:28.316Z,24.12
2023-06-07T18:22:57.955Z,24.10
2023-06-07T18:25:25.818Z,23.99
2023-06-07T18:27:53.326Z,23.86
2023-06-07T18:30:20.894Z,23.82
2023-06-07T18:32:49.590Z,23.79
2023-06-07T18:35:17.264Z,23.76
2023-06-07T18:37:44.568Z,23.66
2023-06-07T18:40:12.548Z,23.61
2023-06-07T18:42:39.994Z,23.49
2023-06-07T18:45:08.964Z,23.44
2023-06-07T18:47:36.494Z,23.35
2023-06-07T18:50:05.433Z,23.30
2023-06-07T18:52:33.471Z,23.19
2023-06-07T18:55:01.094Z,23.11
2023-06-07T18:57:28.421Z,23.03
2023-06-07T18:59:56.044Z,23.00
2023-06-07T19:02:24.970Z,22.88
2023-06-07T19:04:52.896Z,22.80
2023-06-07T19:07:20.389Z,22.75
2023-06-07T19:09:48.275Z,22.76
2023-06-07T19:12:15.722Z,22.78
2023-06-07T19:14:43.676Z,22.62
2023-06-07T19:17:12.029Z,22.54
2023-06-07T19:19:40.227Z,22.49
2023-06-07T19:22:10.697Z,22.47
2023-06-07T19:24:44.129Z,22.35
2023-06-07T19:27:12.784Z,22.25
2023-06-07T19:29:42.265Z,22.37
2023-06-07T19:32:10.766Z,22.25
2023-06-07T19:34:38.408Z,22.13
2023-06-07T19:37:06.791Z,22.09
2023-06-07T19:39:34.512Z,22.06
2023-06-07T19:42:07.987Z,22.07
2023-06-07T19:44:38.985Z,22.12
2023-06-07T19:47:08.103Z,21.99
2023-06-07T19:49:36.394Z,21.93
2023-06-07T19:52:04.161Z,21.87
2023-06-07T19:54:31.973Z,21.78
2023-06-07T19:56:59.675Z,21.65
2023-06-07T19:59:27.345Z,21.59
2023-06-07T20:01:55.338Z,21.47
2023-06-07T20:04:22.961Z,21.39
2023-06-07T20:06:50.278Z,21.27
2023-06-07T20:09:17.863Z,21.29
2023-06-07T20:11:45.140Z,21.22
2023-06-07T20:14:13.454Z,21.22
2023-06-07T20:16:40.821Z,21.20
2023-06-07T20:19:08.432Z,21.19
2023-06-07T20:21:37.235Z,21.16
2023-06-07T20:24:05.979Z,21.09
2023-06-07T20:26:33.305Z,20.98
2023-06-07T20:29:02.582Z,21.00
2023-06-07T20:31:30.045Z,21.04
2023-06-07T20:33:57.685Z,21.06
2023-06-07T20:36:27.173Z,21.07
2023-06-07T20:38:54.823Z,21.00
2023-06-07T20:41:22.068Z,20.97
2023-06-07T20:43:49.719Z,20.88
2023-06-07T20:46:17.129Z,20.85
2023-06-07T20:48:44.814Z,20.84
2023-06-07T20:51:12.103Z,20.83
2023-06-07T20:53:39.773Z,20.83
2023-06-07T20:56:07.205Z,20.74
2023-06-07T20:58:34.825Z,20.69
2023-06-07T21:01:02.110Z,20.63
2023-06-07T21:03:29.888Z,20.60
2023-06-07T21:05:57.437Z,20.56
2023-06-07T21:08:25.036Z,20.55
2023-06-07T21:10:52.358Z,20.54
2023-06-07T21:13:20.032Z,20.54
2023-06-07T21:15:47.463Z,20.51
2023-06-07T21:18:15.202Z,20.45
2023-06-07T21:20:42.486Z,20.42
2023-06-07T21:23:12.268Z,20.42
2023-06-07T21:25:40.605Z,20.40
2023-06-07T21:28:08.262Z,20.38
2023-06-07T21:30:35.878Z,20.33
2023-06-07T21:33:05.058Z,20.31
2023-06-07T21:35:33.243Z,20.30
2023-06-07T21:38:01.287Z,20.29
2023-06-07T21:40:28.764Z,20.31
2023-06-07T21:42:56.494Z,20.30
2023-06-07T21:45:27.820Z,20.29
2023-06-07T21:47:55.692Z,20.28
2023-06-07T21:50:23.211Z,20.28
2023-06-07T21:52:52.026Z,20.25
2023-06-07T21:55:19.332Z,20.21
2023-06-07T21:57:47.960Z,20.19
2023-06-07T22:00:16.397Z,20.16
2023-06-07T22:02:44.065Z,20.13
2023-06-07T22:05:11.470Z,20.09
2023-06-07T22:07:40.081Z,20.04
2023-06-07T22:10:08.124Z,20.00
2023-06-07T22:12:38.083Z,20.00
2023-06-07T22:15:06.116Z,19.93
2023-06-07T22:17:34.566Z,19.92
2023-06-07T22:20:09.642Z,19.82
2023-06-07T22:22:37.632Z,19.77
2023-06-07T22:25:05.634Z,19.75
2023-06-07T22:27:34.096Z,19.69
2023-06-07T22:30:01.506Z,19.66
2023-06-07T22:32:30.215Z,19.64
2023-06-07T22:35:05.481Z,19.63
2023-06-07T22:37:36.896Z,19.57
2023-06-07T22:40:06.570Z,19.53
2023-06-07T22:42:35.272Z,19.52
2023-06-07T22:45:03.723Z,19.50
2023-06-07T22:47:31.580Z,19.48
2023-06-07T22:50:01.970Z,19.48
2023-06-07T22:52:33.908Z,19.46
2023-06-07T22:55:02.457Z,19.44
2023-06-07T22:57:32.099Z,19.42
2023-06-07T22:59:59.487Z,19.38
2023-06-07T23:02:30.014Z,19.37
2023-06-07T23:04:57.697Z,19.33
2023-06-07T23:07:25.463Z,19.26
2023-06-07T23:09:52.857Z,19.25
2023-06-07T23:12:21.332Z,19.24
2023-06-07T23:14:49.749Z,19.16
2023-06-07T23:17:18.609Z,19.10
2023-06-07T23:19:46.719Z,19.08
2023-06-07T23:22:14.305Z,19.05
2023-06-07T23:24:42.161Z,18.96
2023-06-07T23:27:09.750Z,18.95
2023-06-07T23:29:37.104Z,18.89
2023-06-07T23:32:05.784Z,18.83
2023-06-07T23:34:34.723Z,18.81
2023-06-07T23:37:02.374Z,18.76
2023-06-07T23:39:29.655Z,18.76
2023-06-07T23:41:57.465Z,18.73
2023-06-07T23:44:28.930Z,18.72
2023-06-07T23:46:57.073Z,18.71
2023-06-07T23:49:35.602Z,18.69
2023-06-07T23:52:04.274Z,18.64
2023-06-07T23:54:31.666Z,18.59
2023-06-07T23:57:00.304Z,18.56
2023-06-07T23:59:27.888Z,18.53
